createdAt,value
2024-04-22T00:00:30.069Z,6.40
2024-04-22T00:02:57.014Z,6.50
2024-04-22T00:05:23.798Z,6.50
2024-04-22T00:07:50.741Z,6.60
2024-04-22T00:10:17.616Z,6.60
2024-04-22T00:12:44.483Z,6.60
2024-04-22T00:15:11.267Z,6.70
2024-04-22T00:17:38.119Z,6.70
2024-04-22T00:20:05.582Z,6.70
2024-04-22T00:22:32.364Z,6.80
2024-04-22T00:24:59.257Z,6.80
2024-04-22T00:27:26.117Z,6.80
2024-04-22T00:29:52.993Z,6.90
2024-04-22T00:32:19.823Z,6.80
2024-04-22T00:34:49.791Z,8.10
2024-04-22T00:37:16.582Z,6.60
2024-04-22T00:39:43.407Z,8.10
2024-04-22T00:42:10.217Z,8.00
2024-04-22T00:44:37.016Z,7.40
2024-04-22T00:47:04.163Z,7.30
2024-04-22T00:49:31.083Z,6.60
2024-04-22T00:51:57.923Z,6.70
2024-04-22T00:54:24.975Z,6.70
2024-04-22T00:56:54.857Z,6.70
2024-04-22T00:59:22.177Z,6.70
2024-04-22T01:01:49.046Z,6.70
2024-04-22T01:04:16.120Z,6.70
2024-04-22T01:06:42.895Z,7.00
2024-04-22T01:09:09.653Z,8.40
2024-04-22T01:11:36.747Z,6.60
2024-04-22T01:14:04.028Z,7.10
2024-04-22T01:16:30.868Z,6.20
2024-04-22T01:18:57.681Z,6.40
2024-04-22T01:21:29.459Z,6.50
2024-04-22T01:23:57.819Z,6.40
2024-04-22T01:26:26.042Z,6.40
2024-04-22T01:28:53.055Z,6.50
2024-04-22T01:31:20.171Z,6.50
2024-04-22T01:33:47.036Z,6.50
2024-04-22T01:36:13.766Z,6.50
2024-04-22T01:38:40.555Z,6.40
2024-04-22T01:41:07.324Z,8.50
2024-04-22T01:43:34.135Z,6.40
2024-04-22T01:46:03.309Z,6.40
2024-04-22T01:48:30.182Z,6.40
2024-04-22T01:50:56.951Z,6.40
2024-04-22T01:53:23.757Z,6.00
2024-04-22T01:55:50.518Z,6.40
2024-04-22T01:58:17.330Z,6.40
2024-04-22T02:00:44.205Z,6.40
2024-04-22T02:03:11.030Z,6.40
2024-04-22T02:05:39.703Z,6.40
2024-04-22T02:08:06.671Z,6.40
2024-04-22T02:10:33.525Z,6.40
2024-04-22T02:13:02.299Z,6.40
2024-04-22T02:15:29.687Z,6.30
2024-04-22T02:17:58.370Z,6.40
2024-04-22T02:20:25.410Z,7.60
2024-04-22T02:22:52.275Z,6.40
2024-04-22T02:25:19.102Z,6.80
2024-04-22T02:27:46.942Z,6.30
2024-04-22T02:30:16.173Z,6.40
2024-04-22T02:32:42.981Z,6.40
2024-04-22T02:35:09.795Z,6.30
2024-04-22T02:37:36.760Z,7.30
2024-04-22T02:40:03.789Z,6.30
2024-04-22T02:42:30.550Z,6.30
2024-04-22T02:44:57.296Z,6.30
2024-04-22T02:47:24.112Z,6.20
2024-04-22T02:49:50.876Z,7.90
2024-04-22T02:52:17.766Z,6.20
2024-04-22T02:54:44.494Z,6.20
2024-04-22T02:57:11.311Z,6.10
2024-04-22T02:59:38.129Z,6.20
2024-04-22T03:02:05.141Z,7.40
2024-04-22T03:04:31.939Z,6.00
2024-04-22T03:06:58.712Z,5.80
2024-04-22T03:09:26.298Z,6.00
2024-04-22T03:11:53.054Z,6.00
2024-04-22T03:14:19.814Z,5.90
2024-04-22T03:16:46.595Z,5.80
2024-04-22T03:19:16.269Z,5.40
2024-04-22T03:21:43.072Z,5.70
2024-04-22T03:24:09.918Z,5.80
2024-04-22T03:26:36.863Z,5.80
2024-04-22T03:29:03.897Z,5.70
2024-04-22T03:31:32.798Z,7.50
2024-04-22T03:34:00.769Z,5.70
2024-04-22T03:36:27.634Z,5.50
2024-04-22T03:38:56.273Z,5.60
2024-04-22T03:41:23.527Z,5.70
2024-04-22T03:43:50.381Z,5.80
2024-04-22T03:46:35.960Z,5.70
2024-04-22T03:49:21.388Z,5.60
2024-04-22T03:51:48.222Z,5.70
2024-04-22T03:54:15.356Z,7.10
2024-04-22T03:56:42.693Z,5.40
2024-04-22T03:59:09.438Z,5.30
2024-04-22T04:01:36.263Z,5.40
2024-04-22T04:06:30.805Z,5.60
2024-04-22T04:08:57.628Z,5.60
2024-04-22T04:11:29.167Z,5.50
2024-04-22T04:13:55.951Z,5.50
2024-04-22T04:16:22.964Z,5.60
2024-04-22T04:18:49.774Z,5.70
2024-04-22T04:21:16.554Z,5.60
2024-04-22T04:23:43.337Z,5.50
2024-04-22T04:26:10.268Z,5.70
2024-04-22T04:28:37.113Z,5.40
2024-04-22T04:31:04.340Z,5.30
2024-04-22T04:33:31.295Z,4.90
2024-04-22T04:36:02.654Z,4.80
2024-04-22T04:38:29.874Z,5.00
2024-04-22T04:40:59.083Z,5.10
2024-04-22T04:43:26.336Z,5.00
2024-04-22T04:45:53.917Z,4.90
2024-04-22T04:48:22.116Z,4.90
2024-04-22T04:50:49.386Z,5.10
2024-04-22T04:53:17.445Z,6.90
2024-04-22T04:55:47.313Z,5.10
2024-04-22T04:58:14.409Z,5.20
2024-04-22T05:00:41.806Z,5.20
2024-04-22T05:03:09.168Z,5.20
2024-04-22T05:05:36.288Z,5.20
2024-04-22T05:08:05.152Z,5.10
2024-04-22T05:10:32.293Z,5.50
2024-04-22T05:12:59.172Z,5.10
2024-04-22T05:15:26.663Z,7.60
2024-04-22T05:17:53.607Z,5.20
2024-04-22T05:20:20.482Z,5.30
2024-04-22T05:22:47.480Z,5.40
2024-04-22T05:25:14.524Z,7.10
2024-04-22T05:27:41.404Z,5.40
2024-04-22T05:30:08.633Z,5.50
2024-04-22T05:32:35.614Z,5.50
2024-04-22T05:35:21.188Z,5.20
2024-04-22T05:37:48.407Z,5.60
2024-04-22T05:40:15.212Z,5.60
2024-04-22T05:42:42.099Z,5.60
2024-04-22T05:45:08.967Z,5.60
2024-04-22T05:47:35.769Z,5.70
2024-04-22T05:50:03.490Z,5.70
2024-04-22T05:52:30.480Z,5.80
2024-04-22T05:54:57.388Z,7.60
2024-04-22T05:57:26.851Z,5.50
2024-04-22T05:59:53.691Z,5.40
2024-04-22T06:02:20.528Z,5.20
2024-04-22T06:04:47.532Z,5.30
2024-04-22T06:07:14.439Z,7.30
2024-04-22T06:09:41.368Z,5.30
2024-04-22T06:12:17.300Z,5.30
2024-04-22T06:14:46.559Z,5.30
2024-04-22T06:17:13.743Z,5.40
2024-04-22T06:19:41.001Z,5.80
2024-04-22T06:22:08.076Z,5.50
2024-04-22T06:27:02.162Z,5.40
2024-04-22T06:29:29.004Z,6.80
2024-04-22T06:31:55.955Z,5.40
2024-04-22T06:34:22.912Z,5.60
2024-04-22T06:36:49.819Z,4.90
2024-04-22T06:39:17.525Z,5.30
2024-04-22T06:41:44.437Z,5.30
2024-04-22T06:46:39.465Z,5.40
2024-04-22T06:49:06.493Z,5.50
2024-04-22T06:51:33.415Z,5.50
2024-04-22T06:54:00.188Z,5.40
2024-04-22T06:56:28.353Z,5.50
2024-04-22T06:58:55.322Z,5.40
2024-04-22T07:01:30.888Z,5.40
2024-04-22T07:04:05.393Z,8.20
2024-04-22T07:06:32.637Z,5.80
2024-04-22T07:08:59.832Z,5.50
2024-04-22T07:11:26.998Z,5.90
2024-04-22T07:13:54.109Z,5.80
2024-04-22T07:16:21.591Z,5.70
2024-04-22T07:18:51.141Z,5.80
2024-04-22T07:23:46.903Z,5.80
2024-04-22T07:26:13.810Z,5.70
2024-04-22T07:28:40.851Z,5.70
2024-04-22T07:31:08.136Z,5.90
2024-04-22T07:33:35.263Z,6.00
2024-04-22T07:36:33.619Z,6.10
2024-04-22T07:39:02.350Z,6.20
2024-04-22T07:41:29.582Z,6.10
2024-04-22T07:43:57.151Z,5.10
2024-04-22T07:46:24.049Z,6.30
2024-04-22T07:48:51.152Z,6.00
2024-04-22T07:51:18.290Z,6.00
2024-04-22T07:53:45.332Z,6.10
2024-04-22T07:56:16.698Z,6.10
2024-04-22T07:58:44.735Z,5.90
2024-04-22T08:01:16.078Z,5.90
2024-04-22T08:03:45.955Z,6.10
2024-04-22T08:06:19.156Z,6.30
2024-04-22T08:08:46.513Z,9.30
2024-04-22T08:11:13.805Z,6.30
2024-04-22T08:13:40.849Z,6.30
2024-04-22T08:16:07.970Z,6.60
2024-04-22T08:18:35.181Z,6.50
2024-04-22T08:21:03.814Z,6.60
2024-04-22T08:23:32.387Z,6.70
2024-04-22T08:25:59.380Z,6.40
2024-04-22T08:28:26.531Z,6.90
2024-04-22T08:31:10.052Z,6.70
2024-04-22T08:33:36.946Z,6.70
2024-04-22T08:36:04.034Z,5.70
2024-04-22T08:38:30.949Z,6.90
2024-04-22T08:40:58.053Z,6.90
2024-04-22T08:43:25.094Z,6.90
2024-04-22T08:45:52.112Z,6.80
2024-04-22T08:48:19.408Z,7.10
2024-04-22T08:50:49.539Z,7.40
2024-04-22T08:53:16.512Z,7.10
2024-04-22T08:55:43.565Z,7.20
2024-04-22T08:58:11.088Z,7.20
2024-04-22T09:00:38.382Z,8.00
2024-04-22T09:03:06.078Z,10.00
2024-04-22T09:05:33.886Z,7.50
2024-04-22T09:08:04.946Z,7.40
2024-04-22T09:11:06.151Z,7.40
2024-04-22T09:13:20.030Z,10.60
2024-04-22T09:15:54.754Z,7.50
2024-04-22T09:18:23.855Z,7.70
2024-04-22T09:20:50.867Z,7.70
2024-04-22T09:23:22.196Z,9.10
2024-04-22T09:25:49.619Z,8.00
2024-04-22T09:28:23.823Z,7.90
2024-04-22T09:30:54.229Z,7.90
2024-04-22T09:33:24.958Z,7.90
2024-04-22T09:35:52.784Z,8.10
2024-04-22T09:38:31.127Z,8.20
2024-04-22T09:41:06.161Z,8.30
2024-04-22T09:43:35.857Z,8.30
2024-04-22T09:46:06.341Z,8.50
2024-04-22T09:48:33.743Z,8.90
2024-04-22T09:51:02.644Z,8.60
2024-04-22T09:53:30.071Z,8.30
2024-04-22T09:56:01.536Z,8.30
2024-04-22T09:58:32.808Z,8.30
2024-04-22T10:01:00.022Z,8.20
2024-04-22T10:03:28.651Z,8.20
2024-04-22T10:05:59.817Z,7.90
2024-04-22T10:08:29.517Z,8.20
2024-04-22T10:11:10.204Z,8.40
2024-04-22T10:13:37.838Z,8.80
2024-04-22T10:16:06.239Z,9.10
2024-04-22T10:18:33.742Z,9.00
2024-04-22T10:21:02.992Z,8.60
2024-04-22T10:23:30.348Z,9.00
2024-04-22T10:25:57.229Z,9.10
2024-04-22T10:28:24.094Z,8.90
2024-04-22T10:30:53.100Z,8.60
2024-04-22T10:33:20.131Z,8.60
2024-04-22T10:35:47.946Z,9.00
2024-04-22T10:38:14.697Z,8.50
2024-04-22T10:40:41.653Z,8.30
2024-04-22T10:43:08.734Z,7.90
2024-04-22T10:45:36.739Z,7.80
2024-04-22T10:48:12.184Z,7.70
2024-04-22T10:50:47.603Z,7.80
2024-04-22T10:53:14.529Z,8.10
2024-04-22T10:55:41.471Z,8.20
2024-04-22T10:58:08.316Z,8.30
2024-04-22T11:00:35.310Z,7.60
2024-04-22T11:03:02.572Z,7.20
2024-04-22T11:05:32.135Z,7.40
2024-04-22T11:08:02.101Z,7.50
2024-04-22T11:10:37.821Z,9.30
2024-04-22T11:13:10.064Z,6.90
2024-04-22T11:15:37.002Z,9.40
2024-04-22T11:18:09.965Z,7.20
2024-04-22T11:20:37.613Z,7.00
2024-04-22T11:23:05.960Z,6.90
2024-04-22T11:25:33.073Z,9.50
2024-04-22T11:28:01.097Z,6.50
2024-04-22T11:30:29.200Z,6.50
2024-04-22T11:32:56.223Z,6.70
2024-04-22T11:35:23.557Z,6.70
2024-04-22T11:37:53.271Z,10.20
2024-04-22T11:40:20.163Z,6.80
2024-04-22T11:42:46.988Z,6.80
2024-04-22T11:45:14.074Z,7.00
2024-04-22T11:47:41.062Z,6.80
2024-04-22T11:50:07.953Z,7.30
2024-04-22T11:52:34.900Z,7.20
2024-04-22T11:55:01.752Z,7.30
2024-04-22T11:57:28.645Z,9.60
2024-04-22T11:59:55.505Z,6.90
2024-04-22T12:02:22.332Z,7.20
2024-04-22T12:04:49.346Z,7.10
2024-04-22T12:07:16.300Z,7.40
2024-04-22T12:09:43.078Z,8.00
2024-04-22T12:12:09.983Z,7.50
2024-04-22T12:14:37.532Z,7.40
2024-04-22T12:17:06.231Z,8.90
2024-04-22T12:19:33.128Z,7.00
2024-04-22T12:22:01.423Z,6.80
2024-04-22T12:24:28.299Z,6.70
2024-04-22T12:26:55.199Z,7.10
2024-04-22T12:29:22.057Z,7.90
2024-04-22T12:31:48.918Z,7.60
2024-04-22T12:34:15.901Z,7.40
2024-04-22T12:36:42.923Z,7.90
2024-04-22T12:39:10.758Z,8.10
2024-04-22T12:41:37.788Z,8.00
2024-04-22T12:44:05.173Z,8.50
2024-04-22T12:46:54.044Z,8.90
2024-04-22T12:49:39.431Z,9.10
2024-04-22T12:52:06.871Z,10.50
2024-04-22T12:54:33.736Z,9.60
2024-04-22T12:57:00.466Z,9.30
2024-04-22T12:59:27.229Z,9.30
2024-04-22T13:01:54.963Z,9.10
2024-04-22T13:04:22.632Z,9.00
2024-04-22T13:06:49.620Z,8.80
2024-04-22T13:09:16.486Z,8.90
2024-04-22T13:11:43.356Z,8.70
2024-04-22T13:14:10.156Z,8.40
2024-04-22T13:16:36.996Z,8.30
2024-04-22T13:19:07.024Z,8.30
2024-04-22T13:21:34.860Z,8.50
2024-04-22T13:24:02.044Z,8.50
2024-04-22T13:26:30.170Z,8.60
2024-04-22T13:28:57.034Z,8.60
2024-04-22T13:31:32.785Z,8.60
2024-04-22T13:34:07.394Z,8.60
2024-04-22T13:36:34.328Z,8.40
2024-04-22T13:39:01.097Z,8.20
2024-04-22T13:41:27.947Z,7.90
2024-04-22T13:43:54.869Z,7.90
2024-04-22T13:46:22.711Z,8.30
2024-04-22T13:48:50.545Z,8.10
2024-04-22T13:51:18.246Z,8.30
2024-04-22T13:53:48.027Z,8.10
2024-04-22T13:56:14.820Z,8.00
2024-04-22T13:58:41.610Z,7.70
2024-04-22T14:01:08.635Z,7.70
2024-04-22T14:03:35.703Z,7.90
2024-04-22T14:06:04.778Z,7.90
2024-04-22T14:08:33.162Z,7.90
2024-04-22T14:11:00.675Z,8.00
2024-04-22T14:13:27.613Z,7.70
2024-04-22T14:15:54.425Z,7.70
2024-04-22T14:18:21.381Z,7.80
2024-04-22T14:20:48.207Z,8.00
2024-04-22T14:23:15.342Z,9.50
2024-04-22T14:25:44.242Z,8.00
2024-04-22T14:28:11.077Z,8.10
2024-04-22T14:30:37.961Z,8.30
2024-04-22T14:33:05.282Z,8.40
2024-04-22T14:35:32.369Z,8.30
2024-04-22T14:38:01.892Z,8.50
2024-04-22T14:40:29.003Z,11.10
2024-04-22T14:42:55.877Z,8.50
2024-04-22T14:45:22.657Z,8.10
2024-04-22T14:47:52.376Z,11.20
2024-04-22T14:50:20.640Z,8.70
2024-04-22T14:52:47.681Z,8.80
2024-04-22T14:55:14.628Z,9.00
2024-04-22T14:57:41.480Z,10.50
2024-04-22T15:00:08.909Z,10.70
2024-04-22T15:02:35.814Z,9.50
2024-04-22T15:05:05.240Z,9.60
2024-04-22T15:07:34.017Z,9.80
2024-04-22T15:10:00.866Z,9.60
2024-04-22T15:12:27.723Z,9.60
2024-04-22T15:14:54.598Z,10.00
2024-04-22T15:17:21.587Z,11.20
2024-04-22T15:19:48.498Z,10.60
2024-04-22T15:22:15.606Z,11.00
2024-04-22T15:24:42.475Z,11.20
2024-04-22T15:27:09.331Z,11.00
2024-04-22T15:29:36.163Z,11.00
2024-04-22T15:32:04.194Z,10.90
2024-04-22T15:34:31.256Z,10.80
2024-04-22T15:36:58.110Z,10.80
2024-04-22T15:39:27.635Z,10.90
2024-04-22T15:41:54.949Z,10.90
2024-04-22T15:44:22.049Z,10.70
2024-04-22T15:46:49.167Z,10.20
2024-04-22T15:49:16.081Z,11.80
2024-04-22T15:51:43.014Z,9.40
2024-04-22T15:54:12.255Z,9.90
2024-04-22T15:56:42.022Z,10.00
2024-04-22T15:59:09.338Z,10.10
2024-04-22T16:01:36.718Z,9.90
2024-04-22T16:04:03.952Z,10.60
2024-04-22T16:06:30.806Z,7.90
2024-04-22T16:09:02.714Z,9.60
2024-04-22T16:11:31.648Z,9.90
2024-04-22T16:13:59.114Z,9.90
2024-04-22T16:16:25.956Z,9.70
2024-04-22T16:18:53.839Z,9.60
2024-04-22T16:21:20.883Z,9.70
2024-04-22T16:23:47.887Z,9.00
2024-04-22T16:26:20.119Z,9.40
2024-04-22T16:28:47.406Z,9.80
2024-04-22T16:31:15.603Z,10.30
2024-04-22T16:33:42.391Z,10.70
2024-04-22T16:36:09.220Z,10.50
2024-04-22T16:38:36.120Z,11.40
2024-04-22T16:41:02.954Z,11.70
2024-04-22T16:43:30.650Z,13.30
2024-04-22T16:45:57.513Z,11.60
2024-04-22T16:48:26.471Z,13.50
2024-04-22T16:50:54.092Z,12.00
2024-04-22T16:53:23.859Z,12.20
2024-04-22T16:55:51.061Z,12.40
2024-04-22T16:58:18.155Z,12.70
2024-04-22T17:00:45.107Z,13.60
2024-04-22T17:03:12.434Z,13.60
2024-04-22T17:05:39.282Z,12.60
2024-04-22T17:08:06.331Z,12.50
2024-04-22T17:10:33.181Z,12.80
2024-04-22T17:13:00.004Z,12.40
2024-04-22T17:15:26.778Z,12.30
2024-04-22T17:17:53.727Z,12.20
2024-04-22T17:20:20.688Z,12.20
2024-04-22T17:22:47.588Z,13.40
2024-04-22T17:25:14.550Z,14.60
2024-04-22T17:27:41.456Z,12.60
2024-04-22T17:30:08.603Z,12.60
2024-04-22T17:32:35.649Z,12.90
2024-04-22T17:35:03.184Z,13.10
2024-04-22T17:37:30.068Z,13.30
2024-04-22T17:39:58.179Z,13.10
2024-04-22T17:42:25.048Z,12.90
2024-04-22T17:44:52.036Z,12.20
2024-04-22T17:47:18.824Z,14.10
2024-04-22T17:49:45.648Z,13.00
2024-04-22T17:52:12.529Z,12.10
2024-04-22T17:54:39.310Z,13.70
2024-04-22T17:57:09.430Z,12.10
2024-04-22T17:59:36.457Z,12.30
2024-04-22T18:02:03.531Z,12.20
2024-04-22T18:04:30.630Z,12.30
2024-04-22T18:06:58.148Z,14.30
2024-04-22T18:09:28.597Z,12.20
2024-04-22T18:11:59.409Z,9.90
2024-04-22T18:14:26.658Z,13.10
2024-04-22T18:16:55.041Z,11.90
2024-04-22T18:19:22.629Z,11.50
2024-04-22T18:21:49.403Z,10.60
2024-04-22T18:24:16.267Z,10.50
2024-04-22T18:26:44.657Z,10.30
2024-04-22T18:29:11.674Z,10.10
2024-04-22T18:31:39.547Z,9.90
2024-04-22T18:34:06.423Z,10.20
2024-04-22T18:36:36.021Z,9.60
2024-04-22T18:39:02.843Z,9.40
2024-04-22T18:41:32.102Z,9.50
2024-04-22T18:44:00.020Z,9.10
2024-04-22T18:46:28.383Z,9.10
2024-04-22T18:48:55.180Z,9.00
2024-04-22T18:51:24.945Z,9.10
2024-04-22T18:53:51.672Z,10.10
2024-04-22T18:56:18.449Z,8.80
2024-04-22T18:58:46.471Z,9.90
2024-04-22T19:01:13.290Z,9.30
2024-04-22T19:03:40.196Z,8.80
2024-04-22T19:06:07.216Z,9.00
2024-04-22T19:08:34.158Z,9.30
2024-04-22T19:11:02.371Z,9.30
2024-04-22T19:13:29.486Z,9.60
2024-04-22T19:15:56.223Z,9.80
2024-04-22T19:18:25.011Z,9.90
2024-04-22T19:20:51.942Z,10.00
2024-04-22T19:23:19.170Z,10.00
2024-04-22T19:25:45.941Z,10.00
2024-04-22T19:28:12.699Z,10.00
2024-04-22T19:30:40.648Z,10.00
2024-04-22T19:33:08.045Z,10.00
2024-04-22T19:35:36.301Z,10.00
2024-04-22T19:38:03.599Z,10.00
2024-04-22T19:40:30.539Z,10.00
2024-04-22T19:42:57.293Z,10.00
2024-04-22T19:45:24.178Z,9.60
2024-04-22T19:47:52.130Z,9.50
2024-04-22T19:50:18.958Z,9.40
2024-04-22T19:52:45.732Z,11.90
2024-04-22T19:55:14.873Z,9.30
2024-04-22T19:57:41.678Z,12.00
2024-04-22T20:00:09.283Z,9.40
2024-04-22T20:02:36.811Z,9.40
2024-04-22T20:05:04.353Z,9.40
2024-04-22T20:07:31.394Z,9.40
2024-04-22T20:09:58.209Z,9.30
2024-04-22T20:12:24.978Z,9.30
2024-04-22T20:14:52.241Z,9.10
2024-04-22T20:17:20.247Z,8.90
2024-04-22T20:19:47.101Z,9.00
2024-04-22T20:22:14.012Z,8.80
2024-04-22T20:24:40.799Z,8.70
2024-04-22T20:27:09.277Z,8.90
2024-04-22T20:29:37.630Z,8.70
2024-04-22T20:32:04.704Z,8.80
2024-04-22T20:34:31.667Z,8.80
2024-04-22T20:36:58.978Z,8.80
2024-04-22T20:39:25.876Z,8.70
2024-04-22T20:41:52.590Z,8.70
2024-04-22T20:44:19.393Z,8.60
2024-04-22T20:46:46.214Z,9.50
2024-04-22T20:49:12.979Z,8.20
2024-04-22T20:51:40.878Z,9.60
2024-04-22T20:54:07.739Z,8.10
2024-04-22T20:56:34.558Z,7.80
2024-04-22T20:59:01.647Z,8.00
2024-04-22T21:01:28.453Z,7.90
2024-04-22T21:03:55.226Z,7.80
2024-04-22T21:06:22.109Z,9.40
2024-04-22T21:08:48.905Z,7.40
2024-04-22T21:11:15.817Z,7.10
2024-04-22T21:13:45.154Z,8.90
2024-04-22T21:16:12.778Z,7.10
2024-04-22T21:18:40.002Z,7.30
2024-04-22T21:21:07.136Z,7.10
2024-04-22T21:23:34.638Z,9.40
2024-04-22T21:26:01.692Z,7.40
2024-04-22T21:28:29.727Z,7.40
2024-04-22T21:30:56.538Z,7.30
2024-04-22T21:35:53.696Z,7.90
2024-04-22T21:38:20.529Z,7.10
2024-04-22T21:40:47.853Z,7.10
2024-04-22T21:43:14.881Z,6.90
2024-04-22T21:45:42.322Z,6.80
2024-04-22T21:48:09.075Z,6.60
2024-04-22T21:50:36.025Z,6.70
2024-04-22T21:53:02.925Z,7.40
2024-04-22T21:55:49.686Z,6.80
2024-04-22T21:58:54.593Z,6.80
2024-04-22T22:01:59.229Z,6.70
2024-04-22T22:05:03.280Z,6.60
2024-04-22T22:07:29.991Z,6.50
2024-04-22T22:09:56.892Z,6.40
2024-04-22T22:12:24.661Z,6.40
2024-04-22T22:14:52.217Z,6.30
2024-04-22T22:17:19.466Z,7.60
2024-04-22T22:19:47.930Z,8.10
2024-04-22T22:22:14.888Z,6.30
2024-04-22T22:24:45.604Z,6.40
2024-04-22T22:27:14.720Z,6.40
2024-04-22T22:29:42.690Z,6.90
2024-04-22T22:32:10.132Z,6.20
2024-04-22T22:34:37.265Z,6.20
2024-04-22T22:37:08.169Z,6.10
2024-04-22T22:39:35.377Z,5.90
2024-04-22T22:42:02.476Z,5.80
2024-04-22T22:44:29.334Z,6.00
2024-04-22T22:47:07.584Z,5.90
2024-04-22T22:49:34.672Z,6.00
2024-04-22T22:52:01.516Z,5.60
2024-04-22T22:54:28.339Z,5.20
2024-04-22T22:56:59.428Z,5.10
2024-04-22T22:59:27.086Z,5.10
2024-04-22T23:01:54.791Z,5.00
2024-04-22T23:04:21.896Z,4.90
2024-04-22T23:06:48.822Z,5.00
2024-04-22T23:09:15.967Z,4.90
2024-04-22T23:11:42.827Z,4.80
2024-04-22T23:14:09.668Z,4.80
2024-04-22T23:16:36.456Z,5.00
2024-04-22T23:19:03.262Z,4.60
2024-04-22T23:21:30.312Z,5.00
2024-04-22T23:23:57.068Z,5.30
2024-04-22T23:26:23.831Z,5.10
2024-04-22T23:28:52.618Z,5.20
2024-04-22T23:31:19.503Z,5.20
2024-04-22T23:33:46.373Z,5.30
2024-04-22T23:36:14.165Z,5.40
2024-04-22T23:38:40.901Z,5.30
2024-04-22T23:41:07.784Z,5.30
2024-04-22T23:43:34.725Z,5.30
2024-04-22T23:46:02.323Z,7.30
2024-04-22T23:48:29.101Z,5.30
2024-04-22T23:50:55.828Z,5.50
2024-04-22T23:53:22.579Z,5.10
2024-04-22T23:55:50.730Z,5.00
2024-04-22T23:58:17.665Z,5.00
